sensor_id;sensor_type;location;lat;lon;timestamp;temperature;humidity
20750;DHT22;10535;50.664;4.564;2023-07-28T00:00:31;18.50;99.90
20750;DHT22;10535;50.664;4.564;2023-07-28T00:02:57;18.60;99.90
20750;DHT22;10535;50.664;4.564;2023-07-28T00:05:23;18.50;99.90
20750;DHT22;10535;50.664;4.564;2023-07-28T00:07:48;18.30;99.90
20750;DHT22;10535;50.664;4.564;2023-07-28T00:10:14;18.40;99.90
20750;DHT22;10535;50.664;4.564;2023-07-28T00:12:40;18.50;99.90
20750;DHT22;10535;50.664;4.564;2023-07-28T00:15:06;18.50;99.90
20750;DHT22;10535;50.664;4.564;2023-07-28T00:17:31;18.60;99.90
20750;DHT22;10535;50.664;4.564;2023-07-28T00:19:57;18.50;99.90
20750;DHT22;10535;50.664;4.564;2023-07-28T00:22:23;18.40;99.90
20750;DHT22;10535;50.664;4.564;2023-07-28T00:24:48;18.40;99.90
20750;DHT22;10535;50.664;4.564;2023-07-28T00:27:14;18.40;99.90
20750;DHT22;10535;50.664;4.564;2023-07-28T00:29:41;18.40;99.90
20750;DHT22;10535;50.664;4.564;2023-07-28T00:32:07;18.40;99.90
20750;DHT22;10535;50.664;4.564;2023-07-28T00:34:33;18.40;99.90
20750;DHT22;10535;50.664;4.564;2023-07-28T00:36:58;18.30;99.90
20750;DHT22;10535;50.664;4.564;2023-07-28T00:39:24;18.40;99.90
20750;DHT22;10535;50.664;4.564;2023-07-28T00:41:49;18.30;99.90
20750;DHT22;10535;50.664;4.564;2023-07-28T00:44:15;18.40;99.90
20750;DHT22;10535;50.664;4.564;2023-07-28T00:46:42;18.40;99.90
20750;DHT22;10535;50.664;4.564;2023-07-28T00:49:08;18.40;99.90
20750;DHT22;10535;50.664;4.564;2023-07-28T00:51:35;18.40;99.90
20750;DHT22;10535;50.664;4.564;2023-07-28T00:54:02;18.50;99.90
20750;DHT22;10535;50.664;4.564;2023-07-28T00:56:29;18.50;99.90
20750;DHT22;10535;50.664;4.564;2023-07-28T00:58:55;18.40;99.90
20750;DHT22;10535;50.664;4.564;2023-07-28T01:01:21;18.40;99.90
20750;DHT22;10535;50.664;4.564;2023-07-28T01:03:47;18.30;99.90
20750;DHT22;10535;50.664;4.564;2023-07-28T01:09:03;18.40;99.90
20750;DHT22;10535;50.664;4.564;2023-07-28T01:11:30;18.60;99.90
20750;DHT22;10535;50.664;4.564;2023-07-28T01:13:57;18.60;99.90
20750;DHT22;10535;50.664;4.564;2023-07-28T01:16:25;18.70;99.90
20750;DHT22;10535;50.664;4.564;2023-07-28T01:18:50;18.70;99.90
20750;DHT22;10535;50.664;4.564;2023-07-28T01:21:22;18.60;99.90
20750;DHT22;10535;50.664;4.564;2023-07-28T01:26:35;18.50;99.90
20750;DHT22;10535;50.664;4.564;2023-07-28T01:29:05;18.50;99.90
20750;DHT22;10535;50.664;4.564;2023-07-28T01:31:31;18.40;99.90
20750;DHT22;10535;50.664;4.564;2023-07-28T01:33:57;18.50;99.90
20750;DHT22;10535;50.664;4.564;2023-07-28T01:36:23;18.50;99.90
20750;DHT22;10535;50.664;4.564;2023-07-28T01:38:48;18.50;99.90
20750;DHT22;10535;50.664;4.564;2023-07-28T01:41:14;18.60;99.90
20750;DHT22;10535;50.664;4.564;2023-07-28T01:43:40;18.60;99.90
20750;DHT22;10535;50.664;4.564;2023-07-28T01:46:07;18.50;99.90
20750;DHT22;10535;50.664;4.564;2023-07-28T01:48:33;18.40;99.90
20750;DHT22;10535;50.664;4.564;2023-07-28T01:50:58;18.40;99.90
20750;DHT22;10535;50.664;4.564;2023-07-28T01:53:25;18.40;99.90
20750;DHT22;10535;50.664;4.564;2023-07-28T01:55:51;18.40;99.90
20750;DHT22;10535;50.664;4.564;2023-07-28T01:58:17;18.40;99.90
20750;DHT22;10535;50.664;4.564;2023-07-28T02:00:42;18.60;99.90
20750;DHT22;10535;50.664;4.564;2023-07-28T02:03:08;18.60;99.90
20750;DHT22;10535;50.664;4.564;2023-07-28T02:05:33;18.60;99.90
20750;DHT22;10535;50.664;4.564;2023-07-28T02:07:59;18.70;99.90
20750;DHT22;10535;50.664;4.564;2023-07-28T02:10:26;18.70;99.90
20750;DHT22;10535;50.664;4.564;2023-07-28T02:12:52;18.70;99.90
20750;DHT22;10535;50.664;4.564;2023-07-28T02:15:18;18.70;99.90
20750;DHT22;10535;50.664;4.564;2023-07-28T02:17:44;18.60;99.90
20750;DHT22;10535;50.664;4.564;2023-07-28T02:20:10;18.70;99.90
20750;DHT22;10535;50.664;4.564;2023-07-28T02:22:41;18.60;99.90
20750;DHT22;10535;50.664;4.564;2023-07-28T02:25:07;18.60;99.90
20750;DHT22;10535;50.664;4.564;2023-07-28T02:27:33;18.60;99.90
20750;DHT22;10535;50.664;4.564;2023-07-28T02:29:58;18.70;99.90
20750;DHT22;10535;50.664;4.564;2023-07-28T02:32:24;18.70;99.90
20750;DHT22;10535;50.664;4.564;2023-07-28T02:34:50;18.60;99.90
20750;DHT22;10535;50.664;4.564;2023-07-28T02:37:31;18.60;99.90
20750;DHT22;10535;50.664;4.564;2023-07-28T02:39:56;18.60;99.90
20750;DHT22;10535;50.664;4.564;2023-07-28T02:42:22;18.80;99.90
20750;DHT22;10535;50.664;4.564;2023-07-28T02:44:49;18.70;99.90
20750;DHT22;10535;50.664;4.564;2023-07-28T02:47:14;18.70;99.90
20750;DHT22;10535;50.664;4.564;2023-07-28T02:49:41;18.70;99.90
20750;DHT22;10535;50.664;4.564;2023-07-28T02:52:07;18.80;99.90
20750;DHT22;10535;50.664;4.564;2023-07-28T02:54:33;18.70;99.90
20750;DHT22;10535;50.664;4.564;2023-07-28T02:56:58;18.60;99.90
20750;DHT22;10535;50.664;4.564;2023-07-28T02:59:24;18.80;99.90
20750;DHT22;10535;50.664;4.564;2023-07-28T03:01:51;18.70;99.90
20750;DHT22;10535;50.664;4.564;2023-07-28T03:04:34;18.60;99.90
20750;DHT22;10535;50.664;4.564;2023-07-28T03:07:00;18.80;99.90
20750;DHT22;10535;50.664;4.564;2023-07-28T03:09:25;18.90;99.90
20750;DHT22;10535;50.664;4.564;2023-07-28T03:11:51;18.80;99.90
20750;DHT22;10535;50.664;4.564;2023-07-28T03:14:17;18.80;99.90
20750;DHT22;10535;50.664;4.564;2023-07-28T03:16:42;18.80;99.90
20750;DHT22;10535;50.664;4.564;2023-07-28T03:19:08;18.80;99.90
20750;DHT22;10535;50.664;4.564;2023-07-28T03:21:33;18.90;99.90
20750;DHT22;10535;50.664;4.564;2023-07-28T03:23:59;18.70;99.90
20750;DHT22;10535;50.664;4.564;2023-07-28T03:26:25;18.80;99.90
20750;DHT22;10535;50.664;4.564;2023-07-28T03:28:51;18.80;99.90
20750;DHT22;10535;50.664;4.564;2023-07-28T03:31:16;18.80;99.90
20750;DHT22;10535;50.664;4.564;2023-07-28T03:33:42;18.80;99.90
20750;DHT22;10535;50.664;4.564;2023-07-28T03:36:07;18.80;99.90
20750;DHT22;10535;50.664;4.564;2023-07-28T03:38:33;18.90;99.90
20750;DHT22;10535;50.664;4.564;2023-07-28T03:40:59;18.90;99.90
20750;DHT22;10535;50.664;4.564;2023-07-28T03:43:25;19.00;99.90
20750;DHT22;10535;50.664;4.564;2023-07-28T03:45:51;19.10;99.90
20750;DHT22;10535;50.664;4.564;2023-07-28T03:48:17;19.00;99.90
20750;DHT22;10535;50.664;4.564;2023-07-28T03:50:43;18.90;99.90
20750;DHT22;10535;50.664;4.564;2023-07-28T03:53:09;19.00;99.90
20750;DHT22;10535;50.664;4.564;2023-07-28T03:55:35;19.00;99.90
20750;DHT22;10535;50.664;4.564;2023-07-28T03:58:01;19.00;99.90
20750;DHT22;10535;50.664;4.564;2023-07-28T04:00:26;19.00;99.90
20750;DHT22;10535;50.664;4.564;2023-07-28T04:02:52;18.90;99.90
20750;DHT22;10535;50.664;4.564;2023-07-28T04:05:17;18.90;99.90
20750;DHT22;10535;50.664;4.564;2023-07-28T04:07:43;18.90;99.90
20750;DHT22;10535;50.664;4.564;2023-07-28T04:10:11;19.00;99.90
20750;DHT22;10535;50.664;4.564;2023-07-28T04:12:56;19.00;99.90
20750;DHT22;10535;50.664;4.564;2023-07-28T04:15:22;19.00;99.90
20750;DHT22;10535;50.664;4.564;2023-07-28T04:17:47;19.00;99.90
20750;DHT22;10535;50.664;4.564;2023-07-28T04:20:13;18.90;99.90
20750;DHT22;10535;50.664;4.564;2023-07-28T04:22:39;19.00;99.90
20750;DHT22;10535;50.664;4.564;2023-07-28T04:25:07;19.10;99.90
20750;DHT22;10535;50.664;4.564;2023-07-28T04:27:32;19.20;99.90
20750;DHT22;10535;50.664;4.564;2023-07-28T04:29:58;19.20;99.90
20750;DHT22;10535;50.664;4.564;2023-07-28T04:32:24;19.10;99.90
20750;DHT22;10535;50.664;4.564;2023-07-28T04:34:51;19.20;99.90
20750;DHT22;10535;50.664;4.564;2023-07-28T04:37:17;19.20;99.90
20750;DHT22;10535;50.664;4.564;2023-07-28T04:39:43;19.10;99.90
20750;DHT22;10535;50.664;4.564;2023-07-28T04:42:15;19.10;99.90
20750;DHT22;10535;50.664;4.564;2023-07-28T04:44:40;19.20;99.90
20750;DHT22;10535;50.664;4.564;2023-07-28T04:47:06;19.20;99.90
20750;DHT22;10535;50.664;4.564;2023-07-28T04:49:32;19.00;99.90
20750;DHT22;10535;50.664;4.564;2023-07-28T04:51:57;19.00;99.90
20750;DHT22;10535;50.664;4.564;2023-07-28T04:54:23;19.10;99.90
20750;DHT22;10535;50.664;4.564;2023-07-28T04:56:48;19.10;99.90
20750;DHT22;10535;50.664;4.564;2023-07-28T04:59:19;19.10;99.90
20750;DHT22;10535;50.664;4.564;2023-07-28T05:01:46;18.90;99.90
20750;DHT22;10535;50.664;4.564;2023-07-28T05:04:11;19.00;99.90
20750;DHT22;10535;50.664;4.564;2023-07-28T05:06:37;19.00;99.90
20750;DHT22;10535;50.664;4.564;2023-07-28T05:09:04;19.00;99.90
20750;DHT22;10535;50.664;4.564;2023-07-28T05:11:29;19.10;99.90
20750;DHT22;10535;50.664;4.564;2023-07-28T05:13:56;19.10;99.90
20750;DHT22;10535;50.664;4.564;2023-07-28T05:16:21;19.20;99.90
20750;DHT22;10535;50.664;4.564;2023-07-28T05:18:47;19.20;99.90
20750;DHT22;10535;50.664;4.564;2023-07-28T05:21:14;19.40;99.90
20750;DHT22;10535;50.664;4.564;2023-07-28T05:23:41;19.40;99.90
20750;DHT22;10535;50.664;4.564;2023-07-28T05:26:06;19.30;99.90
20750;DHT22;10535;50.664;4.564;2023-07-28T05:28:34;19.40;99.90
20750;DHT22;10535;50.664;4.564;2023-07-28T05:31:04;19.50;99.90
20750;DHT22;10535;50.664;4.564;2023-07-28T05:33:31;19.50;99.90
20750;DHT22;10535;50.664;4.564;2023-07-28T05:36:04;19.50;99.90
20750;DHT22;10535;50.664;4.564;2023-07-28T05:38:30;19.50;99.90
20750;DHT22;10535;50.664;4.564;2023-07-28T05:41:00;19.60;99.90
20750;DHT22;10535;50.664;4.564;2023-07-28T05:43:27;19.70;99.90
20750;DHT22;10535;50.664;4.564;2023-07-28T05:45:53;19.80;99.90
20750;DHT22;10535;50.664;4.564;2023-07-28T05:48:18;19.90;99.90
20750;DHT22;10535;50.664;4.564;2023-07-28T05:50:44;19.90;99.90
20750;DHT22;10535;50.664;4.564;2023-07-28T05:53:11;19.90;99.90
20750;DHT22;10535;50.664;4.564;2023-07-28T05:55:36;19.90;99.90
20750;DHT22;10535;50.664;4.564;2023-07-28T05:58:03;19.70;99.90
20750;DHT22;10535;50.664;4.564;2023-07-28T06:00:28;19.80;99.90
20750;DHT22;10535;50.664;4.564;2023-07-28T06:02:54;19.80;99.90
20750;DHT22;10535;50.664;4.564;2023-07-28T06:05:19;19.80;99.90
20750;DHT22;10535;50.664;4.564;2023-07-28T06:07:48;20.00;99.90
20750;DHT22;10535;50.664;4.564;2023-07-28T06:10:14;20.00;99.90
20750;DHT22;10535;50.664;4.564;2023-07-28T06:12:39;20.10;99.90
20750;DHT22;10535;50.664;4.564;2023-07-28T06:15:06;20.00;99.90
20750;DHT22;10535;50.664;4.564;2023-07-28T06:17:31;20.00;99.90
20750;DHT22;10535;50.664;4.564;2023-07-28T06:19:57;19.80;99.90
20750;DHT22;10535;50.664;4.564;2023-07-28T06:22:23;19.90;99.90
20750;DHT22;10535;50.664;4.564;2023-07-28T06:24:48;19.90;99.90
20750;DHT22;10535;50.664;4.564;2023-07-28T06:27:14;19.90;99.90
20750;DHT22;10535;50.664;4.564;2023-07-28T06:29:40;20.00;99.90
20750;DHT22;10535;50.664;4.564;2023-07-28T06:32:05;20.00;99.90
20750;DHT22;10535;50.664;4.564;2023-07-28T06:34:31;20.20;99.90
20750;DHT22;10535;50.664;4.564;2023-07-28T06:36:57;20.50;99.90
20750;DHT22;10535;50.664;4.564;2023-07-28T06:39:23;20.50;99.90
20750;DHT22;10535;50.664;4.564;2023-07-28T06:41:50;20.70;99.90
20750;DHT22;10535;50.664;4.564;2023-07-28T06:44:15;20.80;99.90
20750;DHT22;10535;50.664;4.564;2023-07-28T06:46:41;20.80;99.90
20750;DHT22;10535;50.664;4.564;2023-07-28T06:49:07;20.90;99.90
20750;DHT22;10535;50.664;4.564;2023-07-28T06:51:51;21.00;99.90
20750;DHT22;10535;50.664;4.564;2023-07-28T06:54:18;21.10;99.90
20750;DHT22;10535;50.664;4.564;2023-07-28T06:56:43;21.20;99.90
20750;DHT22;10535;50.664;4.564;2023-07-28T06:59:09;21.30;99.90
20750;DHT22;10535;50.664;4.564;2023-07-28T07:01:35;21.20;99.90
20750;DHT22;10535;50.664;4.564;2023-07-28T07:04:01;21.30;99.90
20750;DHT22;10535;50.664;4.564;2023-07-28T07:06:27;21.40;99.90
20750;DHT22;10535;50.664;4.564;2023-07-28T07:08:52;21.50;99.90
20750;DHT22;10535;50.664;4.564;2023-07-28T07:11:18;21.80;99.90
20750;DHT22;10535;50.664;4.564;2023-07-28T07:13:43;22.10;99.90
20750;DHT22;10535;50.664;4.564;2023-07-28T07:16:18;22.30;99.90
20750;DHT22;10535;50.664;4.564;2023-07-28T07:19:25;22.80;99.90
20750;DHT22;10535;50.664;4.564;2023-07-28T07:21:51;23.20;99.90
20750;DHT22;10535;50.664;4.564;2023-07-28T07:24:17;23.10;99.90
20750;DHT22;10535;50.664;4.564;2023-07-28T07:26:42;23.00;99.90
20750;DHT22;10535;50.664;4.564;2023-07-28T07:29:08;23.00;99.90
20750;DHT22;10535;50.664;4.564;2023-07-28T07:31:35;22.80;99.90
20750;DHT22;10535;50.664;4.564;2023-07-28T07:34:00;23.00;99.90
20750;DHT22;10535;50.664;4.564;2023-07-28T07:36:26;22.90;99.90
20750;DHT22;10535;50.664;4.564;2023-07-28T07:38:51;23.00;99.90
20750;DHT22;10535;50.664;4.564;2023-07-28T07:41:17;22.80;99.90
20750;DHT22;10535;50.664;4.564;2023-07-28T07:43:46;22.80;99.90
20750;DHT22;10535;50.664;4.564;2023-07-28T07:46:12;22.60;99.90
20750;DHT22;10535;50.664;4.564;2023-07-28T07:48:38;22.60;99.90
20750;DHT22;10535;50.664;4.564;2023-07-28T07:51:03;22.30;99.90
20750;DHT22;10535;50.664;4.564;2023-07-28T07:53:29;22.30;99.90
20750;DHT22;10535;50.664;4.564;2023-07-28T07:55:55;22.40;99.90
20750;DHT22;10535;50.664;4.564;2023-07-28T07:58:20;22.40;99.90
20750;DHT22;10535;50.664;4.564;2023-07-28T08:00:46;22.30;99.90
20750;DHT22;10535;50.664;4.564;2023-07-28T08:03:12;22.40;99.90
20750;DHT22;10535;50.664;4.564;2023-07-28T08:05:37;22.60;99.90
20750;DHT22;10535;50.664;4.564;2023-07-28T08:08:03;22.70;99.90
20750;DHT22;10535;50.664;4.564;2023-07-28T08:10:30;22.70;99.90
20750;DHT22;10535;50.664;4.564;2023-07-28T08:12:58;22.70;99.90
20750;DHT22;10535;50.664;4.564;2023-07-28T08:15:25;22.60;99.90
20750;DHT22;10535;50.664;4.564;2023-07-28T08:17:50;22.50;99.90
20750;DHT22;10535;50.664;4.564;2023-07-28T08:20:16;22.40;99.90
20750;DHT22;10535;50.664;4.564;2023-07-28T08:22:42;22.30;99.90
20750;DHT22;10535;50.664;4.564;2023-07-28T08:25:08;22.70;99.90
20750;DHT22;10535;50.664;4.564;2023-07-28T08:27:33;23.00;99.90
20750;DHT22;10535;50.664;4.564;2023-07-28T08:29:59;23.20;99.90
20750;DHT22;10535;50.664;4.564;2023-07-28T08:32:35;23.20;99.90
20750;DHT22;10535;50.664;4.564;2023-07-28T08:35:14;23.20;99.90
20750;DHT22;10535;50.664;4.564;2023-07-28T08:37:40;23.00;99.90
20750;DHT22;10535;50.664;4.564;2023-07-28T08:40:07;22.90;99.90
20750;DHT22;10535;50.664;4.564;2023-07-28T08:42:43;23.00;99.90
20750;DHT22;10535;50.664;4.564;2023-07-28T08:45:32;23.30;99.90
20750;DHT22;10535;50.664;4.564;2023-07-28T08:47:58;23.20;99.90
20750;DHT22;10535;50.664;4.564;2023-07-28T08:50:24;23.10;99.90
20750;DHT22;10535;50.664;4.564;2023-07-28T08:53:26;23.10;99.90
20750;DHT22;10535;50.664;4.564;2023-07-28T08:56:11;22.90;99.90
20750;DHT22;10535;50.664;4.564;2023-07-28T08:59:12;23.10;99.90
20750;DHT22;10535;50.664;4.564;2023-07-28T09:02:27;23.40;99.90
20750;DHT22;10535;50.664;4.564;2023-07-28T09:05:40;23.50;99.90
20750;DHT22;10535;50.664;4.564;2023-07-28T09:08:51;23.20;99.90
20750;DHT22;10535;50.664;4.564;2023-07-28T09:12:11;23.20;99.90
20750;DHT22;10535;50.664;4.564;2023-07-28T09:14:45;23.30;99.90
20750;DHT22;10535;50.664;4.564;2023-07-28T09:17:15;23.10;99.90
20750;DHT22;10535;50.664;4.564;2023-07-28T09:20:43;23.40;99.90
20750;DHT22;10535;50.664;4.564;2023-07-28T09:23:30;23.20;99.90
20750;DHT22;10535;50.664;4.564;2023-07-28T09:26:48;23.40;99.90
20750;DHT22;10535;50.664;4.564;2023-07-28T09:29:59;23.50;99.90
20750;DHT22;10535;50.664;4.564;2023-07-28T09:33:28;23.80;99.90
20750;DHT22;10535;50.664;4.564;2023-07-28T09:36:09;23.90;99.90
20750;DHT22;10535;50.664;4.564;2023-07-28T09:39:05;23.90;99.90
20750;DHT22;10535;50.664;4.564;2023-07-28T09:41:44;24.20;99.90
20750;DHT22;10535;50.664;4.564;2023-07-28T09:44:19;24.60;99.90
20750;DHT22;10535;50.664;4.564;2023-07-28T09:46:56;24.70;99.90
20750;DHT22;10535;50.664;4.564;2023-07-28T09:49:48;24.90;99.90
20750;DHT22;10535;50.664;4.564;2023-07-28T09:52:42;24.70;99.90
20750;DHT22;10535;50.664;4.564;2023-07-28T09:55:36;24.80;99.90
20750;DHT22;10535;50.664;4.564;2023-07-28T09:58:05;24.70;99.90
20750;DHT22;10535;50.664;4.564;2023-07-28T10:00:33;24.80;99.90
20750;DHT22;10535;50.664;4.564;2023-07-28T10:03:02;24.90;99.90
20750;DHT22;10535;50.664;4.564;2023-07-28T10:05:28;24.70;99.90
20750;DHT22;10535;50.664;4.564;2023-07-28T10:07:54;25.00;99.90
20750;DHT22;10535;50.664;4.564;2023-07-28T10:10:21;24.90;99.90
20750;DHT22;10535;50.664;4.564;2023-07-28T10:12:51;24.90;99.90
20750;DHT22;10535;50.664;4.564;2023-07-28T10:15:18;24.60;99.90
20750;DHT22;10535;50.664;4.564;2023-07-28T10:17:53;24.30;99.90
20750;DHT22;10535;50.664;4.564;2023-07-28T10:20:36;23.70;99.90
20750;DHT22;10535;50.664;4.564;2023-07-28T10:23:13;23.60;99.90
20750;DHT22;10535;50.664;4.564;2023-07-28T10:25:41;23.50;99.90
20750;DHT22;10535;50.664;4.564;2023-07-28T10:28:26;23.40;99.90
20750;DHT22;10535;50.664;4.564;2023-07-28T10:30:54;23.50;99.90
20750;DHT22;10535;50.664;4.564;2023-07-28T10:33:40;23.50;99.90
20750;DHT22;10535;50.664;4.564;2023-07-28T10:39:02;23.20;99.90
20750;DHT22;10535;50.664;4.564;2023-07-28T10:41:37;23.00;99.90
20750;DHT22;10535;50.664;4.564;2023-07-28T10:44:03;22.70;99.90
20750;DHT22;10535;50.664;4.564;2023-07-28T10:46:29;22.60;99.90
20750;DHT22;10535;50.664;4.564;2023-07-28T10:48:55;22.40;99.90
20750;DHT22;10535;50.664;4.564;2023-07-28T10:51:25;22.30;99.90
20750;DHT22;10535;50.664;4.564;2023-07-28T10:53:57;22.50;99.90
20750;DHT22;10535;50.664;4.564;2023-07-28T10:56:24;22.50;99.90
20750;DHT22;10535;50.664;4.564;2023-07-28T10:59:00;22.50;99.90
20750;DHT22;10535;50.664;4.564;2023-07-28T11:01:34;22.80;99.90
20750;DHT22;10535;50.664;4.564;2023-07-28T11:04:12;23.00;99.90
20750;DHT22;10535;50.664;4.564;2023-07-28T11:06:41;23.20;99.90
20750;DHT22;10535;50.664;4.564;2023-07-28T11:09:11;23.60;99.90
20750;DHT22;10535;50.664;4.564;2023-07-28T11:11:38;24.00;99.90
20750;DHT22;10535;50.664;4.564;2023-07-28T11:14:08;24.40;99.90
20750;DHT22;10535;50.664;4.564;2023-07-28T11:16:35;24.80;99.90
20750;DHT22;10535;50.664;4.564;2023-07-28T11:19:02;25.20;99.90
20750;DHT22;10535;50.664;4.564;2023-07-28T11:21:29;25.50;99.90
20750;DHT22;10535;50.664;4.564;2023-07-28T11:23:54;25.40;99.90
20750;DHT22;10535;50.664;4.564;2023-07-28T11:26:21;25.40;99.90
20750;DHT22;10535;50.664;4.564;2023-07-28T11:28:48;25.10;99.90
20750;DHT22;10535;50.664;4.564;2023-07-28T11:31:13;24.90;99.90
20750;DHT22;10535;50.664;4.564;2023-07-28T11:33:39;25.00;99.90
20750;DHT22;10535;50.664;4.564;2023-07-28T11:36:06;25.20;99.90
20750;DHT22;10535;50.664;4.564;2023-07-28T11:38:32;25.20;99.90
20750;DHT22;10535;50.664;4.564;2023-07-28T11:40:59;25.50;99.90
20750;DHT22;10535;50.664;4.564;2023-07-28T11:43:25;25.80;99.90
20750;DHT22;10535;50.664;4.564;2023-07-28T11:45:51;25.80;99.90
20750;DHT22;10535;50.664;4.564;2023-07-28T11:48:17;25.60;99.90
20750;DHT22;10535;50.664;4.564;2023-07-28T11:50:43;25.10;99.90
20750;DHT22;10535;50.664;4.564;2023-07-28T11:53:10;24.60;99.90
20750;DHT22;10535;50.664;4.564;2023-07-28T11:55:37;24.00;99.90
20750;DHT22;10535;50.664;4.564;2023-07-28T11:58:05;23.40;99.90
20750;DHT22;10535;50.664;4.564;2023-07-28T12:00:32;23.30;99.90
20750;DHT22;10535;50.664;4.564;2023-07-28T12:03:06;23.30;99.90
20750;DHT22;10535;50.664;4.564;2023-07-28T12:05:32;23.70;99.90
20750;DHT22;10535;50.664;4.564;2023-07-28T12:08:01;24.10;99.90
20750;DHT22;10535;50.664;4.564;2023-07-28T12:10:29;24.50;99.90
20750;DHT22;10535;50.664;4.564;2023-07-28T12:12:54;25.20;99.90
20750;DHT22;10535;50.664;4.564;2023-07-28T12:15:28;25.50;99.90
20750;DHT22;10535;50.664;4.564;2023-07-28T12:20:38;25.00;99.90
20750;DHT22;10535;50.664;4.564;2023-07-28T12:23:06;25.20;99.90
20750;DHT22;10535;50.664;4.564;2023-07-28T12:25:32;25.40;99.90
20750;DHT22;10535;50.664;4.564;2023-07-28T12:27:58;25.60;99.90
20750;DHT22;10535;50.664;4.564;2023-07-28T12:30:24;25.70;99.90
20750;DHT22;10535;50.664;4.564;2023-07-28T12:32:50;25.60;99.90
20750;DHT22;10535;50.664;4.564;2023-07-28T12:35:15;26.10;99.90
20750;DHT22;10535;50.664;4.564;2023-07-28T12:37:41;26.20;99.90
20750;DHT22;10535;50.664;4.564;2023-07-28T12:40:07;26.50;99.90
20750;DHT22;10535;50.664;4.564;2023-07-28T12:42:33;26.50;99.90
20750;DHT22;10535;50.664;4.564;2023-07-28T12:44:59;26.70;99.90
20750;DHT22;10535;50.664;4.564;2023-07-28T12:47:25;26.40;99.90
20750;DHT22;10535;50.664;4.564;2023-07-28T12:49:50;26.20;99.90
20750;DHT22;10535;50.664;4.564;2023-07-28T12:52:16;26.80;99.90
20750;DHT22;10535;50.664;4.564;2023-07-28T12:54:42;27.00;99.90
20750;DHT22;10535;50.664;4.564;2023-07-28T12:57:08;27.10;99.90
20750;DHT22;10535;50.664;4.564;2023-07-28T12:59:36;27.20;99.90
20750;DHT22;10535;50.664;4.564;2023-07-28T13:02:02;27.30;99.90
20750;DHT22;10535;50.664;4.564;2023-07-28T13:04:28;27.00;99.90
20750;DHT22;10535;50.664;4.564;2023-07-28T13:06:53;27.00;99.90
20750;DHT22;10535;50.664;4.564;2023-07-28T13:09:19;26.70;99.90
20750;DHT22;10535;50.664;4.564;2023-07-28T13:11:45;26.60;99.90
20750;DHT22;10535;50.664;4.564;2023-07-28T13:14:10;26.50;99.90
20750;DHT22;10535;50.664;4.564;2023-07-28T13:16:36;26.50;99.90
20750;DHT22;10535;50.664;4.564;2023-07-28T13:19:06;26.20;99.90
20750;DHT22;10535;50.664;4.564;2023-07-28T13:21:32;25.80;99.90
20750;DHT22;10535;50.664;4.564;2023-07-28T13:23:58;25.70;99.90
20750;DHT22;10535;50.664;4.564;2023-07-28T13:26:24;25.80;99.90
20750;DHT22;10535;50.664;4.564;2023-07-28T13:28:51;26.00;99.90
20750;DHT22;10535;50.664;4.564;2023-07-28T13:31:16;26.10;99.90
20750;DHT22;10535;50.664;4.564;2023-07-28T13:33:43;26.30;99.90
20750;DHT22;10535;50.664;4.564;2023-07-28T13:36:09;26.20;99.90
20750;DHT22;10535;50.664;4.564;2023-07-28T13:38:35;26.00;99.90
20750;DHT22;10535;50.664;4.564;2023-07-28T13:41:04;26.40;99.90
20750;DHT22;10535;50.664;4.564;2023-07-28T13:43:29;26.60;99.90
20750;DHT22;10535;50.664;4.564;2023-07-28T13:45:55;26.70;99.90
20750;DHT22;10535;50.664;4.564;2023-07-28T13:48:21;26.90;99.90
20750;DHT22;10535;50.664;4.564;2023-07-28T13:50:46;26.80;99.90
20750;DHT22;10535;50.664;4.564;2023-07-28T13:53:12;26.80;99.90
20750;DHT22;10535;50.664;4.564;2023-07-28T13:55:38;26.40;99.90
20750;DHT22;10535;50.664;4.564;2023-07-28T13:58:04;26.00;99.90
20750;DHT22;10535;50.664;4.564;2023-07-28T14:00:29;25.80;99.90
20750;DHT22;10535;50.664;4.564;2023-07-28T14:02:55;25.70;99.90
20750;DHT22;10535;50.664;4.564;2023-07-28T14:05:20;25.80;99.90
20750;DHT22;10535;50.664;4.564;2023-07-28T14:07:48;26.00;99.90
20750;DHT22;10535;50.664;4.564;2023-07-28T14:10:13;26.40;99.90
20750;DHT22;10535;50.664;4.564;2023-07-28T14:12:39;26.60;99.90
20750;DHT22;10535;50.664;4.564;2023-07-28T14:15:06;26.80;99.90
20750;DHT22;10535;50.664;4.564;2023-07-28T14:17:32;26.90;99.90
20750;DHT22;10535;50.664;4.564;2023-07-28T14:19:58;27.10;99.90
20750;DHT22;10535;50.664;4.564;2023-07-28T14:22:24;27.10;99.90
20750;DHT22;10535;50.664;4.564;2023-07-28T14:24:49;27.00;99.90
20750;DHT22;10535;50.664;4.564;2023-07-28T14:27:15;26.60;99.90
20750;DHT22;10535;50.664;4.564;2023-07-28T14:29:41;26.60;99.90
20750;DHT22;10535;50.664;4.564;2023-07-28T14:32:07;26.40;99.90
20750;DHT22;10535;50.664;4.564;2023-07-28T14:34:33;26.50;99.90
20750;DHT22;10535;50.664;4.564;2023-07-28T14:37:03;26.30;99.90
20750;DHT22;10535;50.664;4.564;2023-07-28T14:39:30;26.20;99.90
20750;DHT22;10535;50.664;4.564;2023-07-28T14:41:56;26.40;99.90
20750;DHT22;10535;50.664;4.564;2023-07-28T14:44:22;26.30;99.90
20750;DHT22;10535;50.664;4.564;2023-07-28T14:46:47;26.30;99.90
20750;DHT22;10535;50.664;4.564;2023-07-28T14:49:13;26.20;99.90
20750;DHT22;10535;50.664;4.564;2023-07-28T14:51:39;26.30;99.90
20750;DHT22;10535;50.664;4.564;2023-07-28T14:54:04;26.30;99.90
20750;DHT22;10535;50.664;4.564;2023-07-28T14:56:31;26.50;99.90
20750;DHT22;10535;50.664;4.564;2023-07-28T14:58:57;26.40;99.90
20750;DHT22;10535;50.664;4.564;2023-07-28T15:01:23;26.40;99.90
20750;DHT22;10535;50.664;4.564;2023-07-28T15:03:49;26.10;99.90
20750;DHT22;10535;50.664;4.564;2023-07-28T15:06:14;26.40;99.90
20750;DHT22;10535;50.664;4.564;2023-07-28T15:08:40;26.40;99.90
20750;DHT22;10535;50.664;4.564;2023-07-28T15:11:07;26.70;99.90
20750;DHT22;10535;50.664;4.564;2023-07-28T15:13:33;26.80;99.90
20750;DHT22;10535;50.664;4.564;2023-07-28T15:15:58;27.30;99.90
20750;DHT22;10535;50.664;4.564;2023-07-28T15:18:24;27.50;99.90
20750;DHT22;10535;50.664;4.564;2023-07-28T15:20:50;27.60;99.90
20750;DHT22;10535;50.664;4.564;2023-07-28T15:23:15;27.50;99.90
20750;DHT22;10535;50.664;4.564;2023-07-28T15:25:41;27.10;99.90
20750;DHT22;10535;50.664;4.564;2023-07-28T15:28:22;27.00;99.90
20750;DHT22;10535;50.664;4.564;2023-07-28T15:30:47;27.10;99.90
20750;DHT22;10535;50.664;4.564;2023-07-28T15:33:14;27.20;99.90
20750;DHT22;10535;50.664;4.564;2023-07-28T15:35:44;27.60;99.90
20750;DHT22;10535;50.664;4.564;2023-07-28T15:38:29;27.90;99.90
20750;DHT22;10535;50.664;4.564;2023-07-28T15:40:55;28.30;99.90
20750;DHT22;10535;50.664;4.564;2023-07-28T15:43:28;28.00;99.90
20750;DHT22;10535;50.664;4.564;2023-07-28T15:45:54;28.10;99.90
20750;DHT22;10535;50.664;4.564;2023-07-28T15:48:20;28.10;99.90
20750;DHT22;10535;50.664;4.564;2023-07-28T15:50:46;28.00;99.90